Time;durP1;ratioP1;P1;durP2;ratioP2;P2;SDS_P1;SDS_P2;PMS_P1;PMS_P2;Temp;Humidity;BMP_temperature;BMP_pressure;BME280_temperature;BME280_humidity;BME280_pressure;Samples;Min_cycle;Max_cycle;Signal;HPM_P1;HPM_P2
2023/12/21 00:02:07;;;;;;;15.68;4.70;;;9.60;99.90;;;;;;5071071;28;20487;-61
2023/12/21 00:04:33;;;;;;;18.33;5.28;;;9.60;99.90;;;;;;5061302;28;20040;-63
2023/12/21 00:07:00;;;;;;;18.90;5.40;;;9.60;99.90;;;;;;5063452;28;20045;-62
2023/12/21 00:09:26;;;;;;;16.52;4.40;;;9.60;99.90;;;;;;5052619;28;20460;-62
2023/12/21 00:11:51;;;;;;;12.07;4.30;;;9.60;99.90;;;;;;5070892;28;20044;-62
2023/12/21 00:14:17;;;;;;;15.15;4.28;;;9.60;99.90;;;;;;5065756;28;20045;-63
2023/12/21 00:16:42;;;;;;;15.40;4.80;;;9.60;99.90;;;;;;5070497;28;20042;-64
2023/12/21 00:19:08;;;;;;;21.10;4.65;;;9.60;99.90;;;;;;5069512;28;20044;-65
2023/12/21 00:21:33;;;;;;;16.92;4.20;;;9.60;99.90;;;;;;5062414;28;20047;-65
2023/12/21 00:23:59;;;;;;;13.95;4.07;;;9.70;99.90;;;;;;5069893;28;20035;-65
2023/12/21 00:26:25;;;;;;;16.98;4.65;;;9.60;99.90;;;;;;5070682;28;20083;-64
2023/12/21 00:28:50;;;;;;;21.17;4.72;;;9.60;99.90;;;;;;5062525;28;20380;-64
2023/12/21 00:31:16;;;;;;;16.23;4.55;;;9.60;99.90;;;;;;5051596;28;20037;-66
2023/12/21 00:33:41;;;;;;;12.77;4.13;;;9.60;99.90;;;;;;5069905;28;20041;-65
2023/12/21 00:36:07;;;;;;;20.00;4.20;;;9.60;99.90;;;;;;5070455;28;20045;-65
2023/12/21 00:38:32;;;;;;;20.80;4.80;;;9.60;99.90;;;;;;5060753;28;20419;-63
2023/12/21 00:40:59;;;;;;;13.23;4.07;;;9.60;99.90;;;;;;5066065;28;20043;-62
2023/12/21 00:43:25;;;;;;;15.60;5.07;;;9.60;99.90;;;;;;5070221;28;20043;-65
2023/12/21 00:45:50;;;;;;;18.88;5.15;;;9.60;99.90;;;;;;5065872;28;20049;-64
2023/12/21 00:48:17;;;;;;;22.10;5.53;;;9.60;99.90;;;;;;5059725;28;20048;-65
2023/12/21 00:50:42;;;;;;;19.48;5.22;;;9.70;99.90;;;;;;5070187;28;20717;-66
2023/12/21 00:53:08;;;;;;;23.13;5.95;;;9.70;99.90;;;;;;5070078;28;20506;-65
2023/12/21 00:55:33;;;;;;;23.75;5.50;;;9.60;99.90;;;;;;5060863;28;20036;-65
2023/12/21 00:57:59;;;;;;;22.30;5.20;;;9.70;99.90;;;;;;5064915;28;20041;-63
2023/12/21 01:00:24;;;;;;;21.35;6.03;;;9.60;99.90;;;;;;5069998;28;20045;-65
2023/12/21 01:02:50;;;;;;;22.67;5.47;;;9.60;99.90;;;;;;5066214;28;20040;-65
2023/12/21 01:05:15;;;;;;;19.50;5.70;;;9.60;99.90;;;;;;5060176;28;20036;-64
2023/12/21 01:07:41;;;;;;;21.10;5.45;;;9.70;99.90;;;;;;5070091;28;20039;-65
2023/12/21 01:10:08;;;;;;;14.45;4.85;;;9.70;99.90;;;;;;5049016;28;20059;-62
2023/12/21 01:12:34;;;;;;;19.77;5.43;;;9.60;99.90;;;;;;5065460;28;20062;-64
2023/12/21 01:15:00;;;;;;;21.98;5.45;;;9.70;99.90;;;;;;5069871;28;20474;-63
2023/12/21 01:17:26;;;;;;;17.60;5.43;;;9.70;99.90;;;;;;5069710;28;20043;-62
2023/12/21 01:19:52;;;;;;;22.75;6.07;;;9.70;99.90;;;;;;5065572;28;20053;-63
2023/12/21 01:22:18;;;;;;;20.98;5.00;;;9.70;99.90;;;;;;5068905;28;20037;-68
2023/12/21 01:24:43;;;;;;;18.88;5.25;;;9.70;99.90;;;;;;5070320;28;20043;-63
2023/12/21 01:27:09;;;;;;;14.27;5.25;;;9.70;99.90;;;;;;5060355;28;20505;-66
2023/12/21 01:29:34;;;;;;;16.92;5.40;;;9.70;99.90;;;;;;5056024;28;20037;-65
2023/12/21 01:32:00;;;;;;;13.52;4.85;;;9.70;99.90;;;;;;5059234;28;20047;-64
2023/12/21 01:34:25;;;;;;;20.98;5.45;;;9.70;99.90;;;;;;5061829;28;20533;-63
2023/12/21 01:36:51;;;;;;;14.00;4.70;;;9.70;99.90;;;;;;5062662;28;20390;-62
2023/12/21 01:39:16;;;;;;;20.65;5.20;;;9.80;99.90;;;;;;5073161;28;20044;-62
2023/12/21 01:41:42;;;;;;;19.38;5.22;;;9.70;99.90;;;;;;5073538;28;20055;-65
2023/12/21 01:44:07;;;;;;;15.73;4.78;;;9.70;99.90;;;;;;5064321;28;20037;-62
2023/12/21 01:46:34;;;;;;;23.15;5.07;;;9.70;99.90;;;;;;5072076;28;20028;-65
2023/12/21 01:49:00;;;;;;;11.05;4.57;;;9.70;99.90;;;;;;5072255;28;20758;-65
2023/12/21 01:51:27;;;;;;;16.70;5.30;;;9.70;99.90;;;;;;5073083;28;20063;-63
2023/12/21 01:53:54;;;;;;;19.83;5.20;;;9.80;99.90;;;;;;5063625;28;20044;-64
2023/12/21 01:56:20;;;;;;;22.80;5.07;;;9.80;99.90;;;;;;5070805;28;20044;-65
2023/12/21 01:58:48;;;;;;;19.25;4.50;;;9.70;99.90;;;;;;5073087;28;20044;-62
2023/12/21 02:01:17;;;;;;;20.70;4.93;;;9.70;99.90;;;;;;5068863;28;20070;-63
2023/12/21 02:03:43;;;;;;;16.15;4.20;;;9.70;99.90;;;;;;5071715;28;20036;-63
2023/12/21 02:06:09;;;;;;;20.60;4.50;;;9.70;99.90;;;;;;5073312;28;20454;-65
2023/12/21 02:08:35;;;;;;;22.67;4.68;;;9.70;99.90;;;;;;5073189;28;20546;-65
2023/12/21 02:11:06;;;;;;;19.00;4.93;;;9.70;99.90;;;;;;5061764;28;20114;-66
2023/12/21 02:13:32;;;;;;;19.65;4.93;;;9.70;99.90;;;;;;5064416;28;20115;-63
2023/12/21 02:16:01;;;;;;;21.90;5.00;;;9.70;99.90;;;;;;5072376;28;20136;-63
2023/12/21 02:18:27;;;;;;;19.25;5.28;;;9.70;99.90;;;;;;5063870;28;20067;-65
2023/12/21 02:20:53;;;;;;;19.77;4.53;;;9.70;99.90;;;;;;5068502;28;20490;-63
2023/12/21 02:23:21;;;;;;;17.73;4.47;;;9.70;99.90;;;;;;5072630;28;20112;-63
2023/12/21 02:25:46;;;;;;;20.23;4.65;;;9.70;99.90;;;;;;5050787;28;20538;-66
2023/12/21 02:28:12;;;;;;;17.00;4.32;;;9.70;99.90;;;;;;5069052;28;20039;-65
2023/12/21 02:30:38;;;;;;;16.83;4.10;;;9.70;99.90;;;;;;5072215;28;20446;-66
2023/12/21 02:33:03;;;;;;;12.73;4.63;;;9.70;99.90;;;;;;5072526;28;20048;-63
2023/12/21 02:35:29;;;;;;;20.13;4.18;;;9.70;99.90;;;;;;5066254;28;20545;-63
2023/12/21 02:37:55;;;;;;;12.32;4.57;;;9.80;99.90;;;;;;5066606;28;20072;-64
2023/12/21 02:40:20;;;;;;;12.10;3.90;;;9.70;99.90;;;;;;5072434;28;20119;-64
2023/12/21 02:42:46;;;;;;;17.90;4.30;;;9.70;99.90;;;;;;5068605;28;20036;-64
2023/12/21 02:45:11;;;;;;;12.18;4.18;;;9.80;99.90;;;;;;5059575;28;20037;-62
2023/12/21 02:47:37;;;;;;;19.67;4.30;;;9.80;99.90;;;;;;5072640;28;20036;-66
2023/12/21 02:50:03;;;;;;;21.38;4.43;;;9.70;99.90;;;;;;5054537;28;20056;-65
2023/12/21 02:52:28;;;;;;;15.48;4.53;;;9.80;99.90;;;;;;5064142;28;20040;-66
2023/12/21 02:54:54;;;;;;;16.90;4.32;;;9.80;99.90;;;;;;5071755;28;20040;-65
2023/12/21 02:57:19;;;;;;;12.10;3.92;;;9.80;99.90;;;;;;5072134;28;20059;-66
2023/12/21 02:59:45;;;;;;;17.85;4.60;;;9.80;99.90;;;;;;5071753;28;20383;-65
2023/12/21 03:02:11;;;;;;;20.77;4.57;;;9.70;99.90;;;;;;5062974;28;20108;-65
2023/12/21 03:04:36;;;;;;;14.38;5.05;;;9.80;99.90;;;;;;5071377;28;20495;-64
2023/12/21 03:07:02;;;;;;;17.73;5.30;;;9.70;99.90;;;;;;5067385;28;20033;-62
2023/12/21 03:09:28;;;;;;;20.98;4.75;;;9.70;99.90;;;;;;5066526;28;20041;-63
2023/12/21 03:11:54;;;;;;;13.75;5.25;;;9.70;99.90;;;;;;5071501;28;20177;-63
2023/12/21 03:14:22;;;;;;;20.42;5.47;;;9.70;99.90;;;;;;5068063;28;20040;-66
2023/12/21 03:16:48;;;;;;;19.35;5.93;;;9.70;99.90;;;;;;5070466;28;20083;-63
2023/12/21 03:19:14;;;;;;;14.20;5.93;;;9.70;99.90;;;;;;5071059;28;20059;-63
2023/12/21 03:21:39;;;;;;;15.82;6.18;;;9.70;99.90;;;;;;5071518;28;20503;-63
2023/12/21 03:24:05;;;;;;;17.85;6.35;;;9.70;99.90;;;;;;5068206;28;20037;-64
2023/12/21 03:26:31;;;;;;;14.88;5.72;;;9.70;99.90;;;;;;5070878;28;20065;-63
2023/12/21 03:28:57;;;;;;;16.10;6.57;;;9.80;99.90;;;;;;5069716;28;20040;-63
2023/12/21 03:31:23;;;;;;;15.20;6.18;;;9.70;99.90;;;;;;5054300;28;20048;-64
2023/12/21 03:33:48;;;;;;;15.20;6.10;;;9.70;99.90;;;;;;5063444;28;20083;-66
2023/12/21 03:36:14;;;;;;;14.82;6.07;;;9.70;99.90;;;;;;5070957;28;20048;-66
2023/12/21 03:38:40;;;;;;;16.20;6.30;;;9.70;99.90;;;;;;5048891;28;20036;-63
2023/12/21 03:41:05;;;;;;;16.08;7.13;;;9.70;99.90;;;;;;5063105;28;20044;-63
2023/12/21 03:43:31;;;;;;;17.67;7.25;;;9.70;99.90;;;;;;5068554;28;20482;-63
2023/12/21 03:45:56;;;;;;;15.85;7.50;;;9.70;99.90;;;;;;5071248;28;20040;-66
2023/12/21 03:48:22;;;;;;;16.73;6.97;;;9.80;99.90;;;;;;5068025;28;20040;-61
2023/12/21 03:50:48;;;;;;;15.63;7.45;;;9.80;99.90;;;;;;5065405;28;20036;-66
2023/12/21 03:53:16;;;;;;;16.35;6.60;;;9.70;99.90;;;;;;5066403;28;20040;-65
2023/12/21 03:55:42;;;;;;;20.73;7.82;;;9.80;99.90;;;;;;5070753;28;20045;-64
2023/12/21 03:58:08;;;;;;;18.70;9.25;;;9.80;99.90;;;;;;5064263;28;20502;-63
2023/12/21 04:00:34;;;;;;;19.85;7.20;;;9.80;99.90;;;;;;5070092;28;20090;-66
2023/12/21 04:03:00;;;;;;;21.27;8.10;;;9.80;99.90;;;;;;5052527;28;20040;-63
2023/12/21 04:05:26;;;;;;;18.05;7.57;;;9.80;99.90;;;;;;5067619;28;20557;-63
2023/12/21 04:07:51;;;;;;;21.42;8.23;;;9.80;99.90;;;;;;5065921;28;20124;-66
2023/12/21 04:10:17;;;;;;;14.45;7.70;;;9.70;99.90;;;;;;5070711;28;20559;-63
2023/12/21 04:12:43;;;;;;;17.60;7.82;;;9.80;99.90;;;;;;5070037;28;20457;-66
2023/12/21 04:15:09;;;;;;;15.27;7.55;;;9.80;99.90;;;;;;5057157;28;20040;-64
2023/12/21 04:17:34;;;;;;;18.42;6.88;;;9.80;99.90;;;;;;5063572;28;20040;-65
2023/12/21 04:20:00;;;;;;;14.30;6.75;;;9.80;99.90;;;;;;5070616;28;20036;-66
2023/12/21 04:22:26;;;;;;;15.95;6.53;;;9.80;99.90;;;;;;5070161;28;20045;-66
2023/12/21 04:24:51;;;;;;;14.10;6.82;;;9.80;99.90;;;;;;5057334;28;20029;-65
2023/12/21 04:27:17;;;;;;;16.35;7.07;;;9.80;99.90;;;;;;5067075;28;20299;-65
2023/12/21 04:29:42;;;;;;;17.67;7.05;;;9.80;99.90;;;;;;5070180;28;20093;-66
2023/12/21 04:32:08;;;;;;;13.68;6.72;;;9.80;99.90;;;;;;5057627;28;20036;-63
2023/12/21 04:34:33;;;;;;;15.63;7.47;;;9.80;99.90;;;;;;5069637;28;20037;-66
2023/12/21 04:36:59;;;;;;;14.38;6.80;;;9.80;99.90;;;;;;5070413;28;20065;-65
2023/12/21 04:39:24;;;;;;;19.73;6.93;;;9.80;99.90;;;;;;5066128;28;20120;-66
2023/12/21 04:41:50;;;;;;;15.25;6.72;;;9.80;99.90;;;;;;5062113;28;20144;-66
2023/12/21 04:44:16;;;;;;;14.32;6.78;;;9.80;99.90;;;;;;5067101;28;20111;-66
2023/12/21 04:46:42;;;;;;;16.75;7.07;;;9.80;99.90;;;;;;5067635;28;20036;-64
2023/12/21 04:49:07;;;;;;;14.20;7.13;;;9.80;99.90;;;;;;5050203;28;20458;-65
2023/12/21 04:51:33;;;;;;;15.00;7.45;;;9.80;99.90;;;;;;5069734;28;20044;-66
2023/12/21 04:53:58;;;;;;;14.13;6.80;;;9.80;99.90;;;;;;5062267;28;20339;-66
2023/12/21 04:56:24;;;;;;;16.15;7.38;;;9.80;99.90;;;;;;5069317;28;20517;-66
2023/12/21 04:58:49;;;;;;;19.33;7.60;;;9.80;99.90;;;;;;5070044;28;20040;-66
2023/12/21 05:01:15;;;;;;;14.52;6.53;;;9.80;99.90;;;;;;5070270;28;20123;-66
2023/12/21 05:03:42;;;;;;;12.48;6.57;;;9.80;99.90;;;;;;5040900;28;20581;-63
2023/12/21 05:06:08;;;;;;;17.90;7.03;;;9.80;99.90;;;;;;5065876;28;20164;-63
2023/12/21 05:08:33;;;;;;;18.02;6.82;;;9.80;99.90;;;;;;5073290;28;20119;-63
2023/12/21 05:10:59;;;;;;;17.42;7.15;;;9.80;99.90;;;;;;5073607;28;20036;-62
2023/12/21 05:13:24;;;;;;;12.63;7.28;;;9.80;99.90;;;;;;5065948;28;20036;-62
2023/12/21 05:15:50;;;;;;;15.50;7.50;;;9.80;99.90;;;;;;5073322;28;20045;-63
2023/12/21 05:18:16;;;;;;;14.15;6.70;;;9.80;99.90;;;;;;5073877;28;20510;-63
2023/12/21 05:20:41;;;;;;;16.35;7.07;;;9.80;99.90;;;;;;5049270;28;20041;-63
2023/12/21 05:23:07;;;;;;;17.00;8.13;;;9.80;99.90;;;;;;5050211;28;20091;-62
2023/12/21 05:25:32;;;;;;;17.23;7.53;;;9.80;99.90;;;;;;5073297;28;20048;-64
2023/12/21 05:27:58;;;;;;;13.13;7.15;;;9.80;99.90;;;;;;5073575;28;20044;-63
2023/12/21 05:30:24;;;;;;;16.92;6.38;;;9.70;99.90;;;;;;5069565;28;20045;-66
2023/12/21 05:32:50;;;;;;;16.67;6.63;;;9.80;99.90;;;;;;5059819;28;20051;-66
2023/12/21 05:35:15;;;;;;;16.90;7.10;;;9.80;99.90;;;;;;5070108;28;20036;-66
2023/12/21 05:37:41;;;;;;;16.13;7.22;;;9.70;99.90;;;;;;5066408;28;20032;-62
2023/12/21 05:40:07;;;;;;;15.60;5.97;;;9.70;99.90;;;;;;5050379;28;20045;-64
2023/12/21 05:42:33;;;;;;;17.52;5.57;;;9.70;99.90;;;;;;5068578;28;20032;-65
2023/12/21 05:44:58;;;;;;;17.75;6.13;;;9.80;99.90;;;;;;5068339;28;20098;-65
2023/12/21 05:47:24;;;;;;;17.85;6.22;;;9.80;99.90;;;;;;5072994;28;20462;-65
2023/12/21 05:49:50;;;;;;;18.52;5.78;;;9.80;99.90;;;;;;5059043;28;20039;-62
2023/12/21 05:52:15;;;;;;;19.50;5.82;;;9.80;99.90;;;;;;5063440;28;20086;-63
2023/12/21 05:54:41;;;;;;;18.17;5.72;;;9.80;99.90;;;;;;5052858;28;20037;-64
2023/12/21 05:57:10;;;;;;;16.98;5.70;;;9.80;99.90;;;;;;5062436;28;20047;-63
2023/12/21 05:59:37;;;;;;;12.80;5.30;;;9.80;99.90;;;;;;5057364;28;20382;-63
2023/12/21 06:02:03;;;;;;;19.63;4.95;;;9.80;99.90;;;;;;5068590;28;20157;-62
2023/12/21 06:04:28;;;;;;;14.50;4.78;;;9.80;99.90;;;;;;5072469;28;20045;-63
2023/12/21 06:06:54;;;;;;;12.52;4.28;;;9.80;99.90;;;;;;5068311;28;20395;-65
2023/12/21 06:09:19;;;;;;;13.60;4.35;;;9.90;99.90;;;;;;5067813;28;20033;-64
2023/12/21 06:11:45;;;;;;;14.50;4.85;;;9.80;99.90;;;;;;5064465;28;20127;-63
2023/12/21 06:14:10;;;;;;;11.73;4.78;;;9.90;99.90;;;;;;5044529;28;20041;-66
2023/12/21 06:16:36;;;;;;;15.60;4.35;;;9.90;99.90;;;;;;5057331;28;20041;-63
2023/12/21 06:19:09;;;;;;;12.38;3.78;;;9.90;99.90;;;;;;5052622;28;20045;-66
2023/12/21 06:21:37;;;;;;;13.80;4.97;;;9.80;99.90;;;;;;5050339;28;20530;-66
2023/12/21 06:24:03;;;;;;;12.68;4.97;;;9.80;99.90;;;;;;5060893;28;20037;-66
2023/12/21 06:26:28;;;;;;;14.68;3.95;;;9.90;99.90;;;;;;5054617;28;20111;-66
2023/12/21 06:28:54;;;;;;;8.75;3.95;;;9.90;99.90;;;;;;5057637;28;20398;-65
2023/12/21 06:31:19;;;;;;;14.35;4.50;;;9.90;99.90;;;;;;5064112;28;20495;-66
2023/12/21 06:33:45;;;;;;;9.60;4.25;;;9.90;99.90;;;;;;5072009;28;20040;-66
2023/12/21 06:36:10;;;;;;;12.35;4.85;;;9.90;99.90;;;;;;5066301;28;20441;-64
2023/12/21 06:38:36;;;;;;;12.75;5.13;;;9.80;99.90;;;;;;5071840;28;20041;-65
2023/12/21 06:41:02;;;;;;;10.23;4.88;;;9.90;99.90;;;;;;5072016;28;20552;-66
2023/12/21 06:43:27;;;;;;;13.00;5.00;;;9.90;99.90;;;;;;5069076;28;20494;-66
2023/12/21 06:45:53;;;;;;;11.07;5.00;;;10.00;99.90;;;;;;5056719;28;20033;-65
2023/12/21 06:48:18;;;;;;;11.05;4.35;;;10.00;99.90;;;;;;5053357;28;20522;-65
2023/12/21 06:50:44;;;;;;;10.93;4.43;;;10.00;99.90;;;;;;5072506;28;20527;-66
2023/12/21 06:53:15;;;;;;;10.73;4.35;;;10.00;99.90;;;;;;5040826;28;20802;-66
2023/12/21 06:55:44;;;;;;;13.65;4.15;;;10.00;99.90;;;;;;5046650;28;20040;-65
2023/12/21 06:58:10;;;;;;;13.05;4.32;;;10.00;99.90;;;;;;5071717;28;20059;-68
2023/12/21 07:00:35;;;;;;;11.80;4.15;;;10.00;99.90;;;;;;5066100;28;20166;-66
2023/12/21 07:03:01;;;;;;;13.63;3.55;;;9.90;99.90;;;;;;5070784;28;20029;-66
2023/12/21 07:05:27;;;;;;;18.73;4.10;;;9.90;99.90;;;;;;5061563;28;20040;-65
2023/12/21 07:07:55;;;;;;;9.45;3.50;;;9.90;99.90;;;;;;5071952;28;20032;-64
2023/12/21 07:10:21;;;;;;;10.73;3.83;;;9.90;99.90;;;;;;5066542;28;20038;-63
2023/12/21 07:12:47;;;;;;;11.52;4.30;;;9.90;99.90;;;;;;5071256;28;20037;-66
2023/12/21 07:15:13;;;;;;;10.60;4.55;;;9.90;99.90;;;;;;5071493;28;20043;-65
2023/12/21 07:17:39;;;;;;;10.32;4.32;;;9.90;99.90;;;;;;5046470;28;20243;-63
2023/12/21 07:20:05;;;;;;;15.25;5.55;;;9.80;99.90;;;;;;5070666;28;20047;-62
2023/12/21 07:22:30;;;;;;;8.15;4.10;;;9.90;99.90;;;;;;5052829;28;20123;-63
2023/12/21 07:24:56;;;;;;;12.65;4.57;;;9.80;99.90;;;;;;5071652;28;20120;-65
2023/12/21 07:27:22;;;;;;;10.38;4.32;;;9.80;99.90;;;;;;5057834;28;20094;-66
2023/12/21 07:29:49;;;;;;;9.43;4.00;;;9.80;99.90;;;;;;5063616;28;20048;-64
2023/12/21 07:32:15;;;;;;;11.18;4.05;;;9.80;99.90;;;;;;5060027;28;20525;-63
2023/12/21 07:34:41;;;;;;;8.07;4.00;;;9.80;99.90;;;;;;5060195;28;20040;-66
2023/12/21 07:37:08;;;;;;;11.80;3.70;;;9.80;99.90;;;;;;5062835;28;20044;-64
2023/12/21 07:39:34;;;;;;;7.90;3.58;;;9.80;99.90;;;;;;5052573;28;20060;-63
2023/12/21 07:42:00;;;;;;;11.57;3.97;;;9.80;99.90;;;;;;5061529;28;20166;-65
2023/12/21 07:44:26;;;;;;;9.93;3.72;;;9.80;99.90;;;;;;5053124;28;20045;-66
2023/12/21 07:46:51;;;;;;;10.75;4.55;;;9.80;99.90;;;;;;5070831;28;20028;-64
2023/12/21 07:49:17;;;;;;;8.18;3.25;;;9.80;99.90;;;;;;5058612;28;20673;-63
2023/12/21 07:51:43;;;;;;;8.18;3.67;;;9.70;99.90;;;;;;5051236;28;20045;-62
2023/12/21 07:54:08;;;;;;;8.45;3.42;;;9.80;99.90;;;;;;5058490;28;20044;-65
2023/12/21 07:56:34;;;;;;;9.05;3.58;;;9.80;99.90;;;;;;5070478;28;20071;-66
2023/12/21 07:59:04;;;;;;;12.27;3.90;;;9.80;99.90;;;;;;5070774;28;20066;-67
2023/12/21 08:01:31;;;;;;;7.18;2.70;;;9.80;99.90;;;;;;5059289;28;20075;-66
2023/12/21 08:03:56;;;;;;;7.22;3.17;;;9.80;99.90;;;;;;5066096;28;20472;-63
2023/12/21 08:06:22;;;;;;;8.93;2.58;;;9.80;99.90;;;;;;5068991;28;20120;-63
2023/12/21 08:08:49;;;;;;;7.03;2.80;;;9.80;99.90;;;;;;5054997;28;20129;-64
2023/12/21 08:11:16;;;;;;;7.03;3.30;;;9.80;99.90;;;;;;5052255;28;20048;-64
2023/12/21 08:13:42;;;;;;;6.82;3.00;;;9.80;99.90;;;;;;5070417;28;20055;-63
2023/12/21 08:16:07;;;;;;;6.78;2.67;;;9.80;99.90;;;;;;5067399;28;20471;-63
2023/12/21 08:18:33;;;;;;;9.98;3.25;;;9.80;99.90;;;;;;5062626;28;20159;-67
2023/12/21 08:20:58;;;;;;;5.18;2.90;;;9.80;99.90;;;;;;5070247;28;20040;-66
2023/12/21 08:23:24;;;;;;;6.97;3.20;;;9.80;99.90;;;;;;5064613;28;20448;-63
2023/12/21 08:25:49;;;;;;;7.68;3.17;;;9.80;99.90;;;;;;5058284;28;20044;-67
2023/12/21 08:28:15;;;;;;;8.13;2.90;;;9.90;99.90;;;;;;5059690;28;20041;-66
2023/12/21 08:30:43;;;;;;;4.63;2.63;;;9.90;99.90;;;;;;5062916;28;20040;-65
2023/12/21 08:33:08;;;;;;;7.45;2.60;;;9.90;99.90;;;;;;5057543;28;20044;-65
2023/12/21 08:35:34;;;;;;;5.25;2.50;;;9.90;99.90;;;;;;5066051;28;20568;-66
2023/12/21 08:38:00;;;;;;;8.18;2.63;;;9.80;99.90;;;;;;5063220;28;20499;-65
2023/12/21 08:40:26;;;;;;;6.40;2.78;;;9.90;99.90;;;;;;5063316;28;20602;-65
2023/12/21 08:42:51;;;;;;;4.68;2.35;;;9.90;99.90;;;;;;5067567;28;20147;-66
2023/12/21 08:45:17;;;;;;;5.78;2.40;;;9.90;99.90;;;;;;5066967;28;20072;-68
2023/12/21 08:47:43;;;;;;;9.70;2.78;;;10.00;99.90;;;;;;5049585;28;20088;-66
2023/12/21 08:50:10;;;;;;;4.40;2.63;;;10.00;99.90;;;;;;5066025;28;20414;-67
2023/12/21 08:52:36;;;;;;;4.97;2.40;;;10.00;99.90;;;;;;5070112;28;20048;-66
2023/12/21 08:55:03;;;;;;;7.55;3.20;;;9.90;99.90;;;;;;5062680;28;20033;-67
2023/12/21 08:57:29;;;;;;;7.57;3.20;;;10.00;99.90;;;;;;5052897;28;20037;-65
2023/12/21 08:59:55;;;;;;;8.05;3.38;;;10.00;99.90;;;;;;5061159;28;20537;-64
2023/12/21 09:02:21;;;;;;;6.70;3.05;;;10.00;99.90;;;;;;5068980;28;20044;-65
2023/12/21 09:04:48;;;;;;;11.02;3.35;;;10.00;99.90;;;;;;5068494;28;20078;-71
2023/12/21 09:07:13;;;;;;;7.95;3.40;;;10.00;99.90;;;;;;5042630;28;20051;-65
2023/12/21 09:09:39;;;;;;;10.70;3.13;;;10.00;99.90;;;;;;5069561;28;20040;-64
2023/12/21 09:12:05;;;;;;;9.57;3.67;;;10.00;99.90;;;;;;5062007;28;20045;-67
2023/12/21 09:14:30;;;;;;;11.85;3.28;;;10.10;99.90;;;;;;5063194;28;20045;-67
2023/12/21 09:16:58;;;;;;;10.27;3.60;;;10.10;99.90;;;;;;5058182;28;20052;-64
2023/12/21 09:19:24;;;;;;;10.32;3.20;;;10.10;99.90;;;;;;5051476;28;20053;-64
2023/12/21 09:21:49;;;;;;;10.05;3.80;;;10.10;99.90;;;;;;5048943;28;20054;-65
2023/12/21 09:24:15;;;;;;;12.05;3.08;;;10.10;99.90;;;;;;5067659;28;20123;-64
2023/12/21 09:26:40;;;;;;;12.02;3.22;;;10.10;99.90;;;;;;5069649;28;20068;-65
2023/12/21 09:29:06;;;;;;;7.85;2.60;;;10.00;99.90;;;;;;5069761;28;20072;-65
2023/12/21 09:31:32;;;;;;;11.90;3.30;;;10.10;99.90;;;;;;5063927;28;20040;-65
2023/12/21 09:33:59;;;;;;;7.65;2.97;;;10.10;99.90;;;;;;5061161;28;20033;-66
2023/12/21 09:36:24;;;;;;;9.35;3.20;;;10.10;99.90;;;;;;5051368;28;20505;-67
2023/12/21 09:38:50;;;;;;;9.10;2.83;;;10.10;99.90;;;;;;5059812;28;20029;-65
2023/12/21 09:41:15;;;;;;;10.38;2.88;;;10.10;99.90;;;;;;5057962;28;20483;-66
2023/12/21 09:43:42;;;;;;;10.02;2.72;;;10.10;99.90;;;;;;5068185;28;20040;-66
2023/12/21 09:46:09;;;;;;;8.90;2.40;;;10.10;99.90;;;;;;5050421;28;20052;-66
2023/12/21 09:48:42;;;;;;;7.28;2.50;;;10.10;99.90;;;;;;5043118;28;20051;-67
2023/12/21 09:51:09;;;;;;;14.80;3.22;;;10.20;99.90;;;;;;5048552;28;20041;-66
2023/12/21 09:53:35;;;;;;;7.13;2.40;;;10.20;99.90;;;;;;5072425;28;20124;-65
2023/12/21 09:56:01;;;;;;;12.00;2.95;;;10.20;99.90;;;;;;5066407;28;20047;-66
2023/12/21 09:58:31;;;;;;;7.10;2.40;;;10.20;99.90;;;;;;5063213;28;20036;-66
2023/12/21 10:00:56;;;;;;;10.55;2.33;;;10.20;99.90;;;;;;5051117;28;20048;-66
2023/12/21 10:03:22;;;;;;;10.27;2.35;;;10.20;99.90;;;;;;5072682;28;20131;-67
2023/12/21 10:05:48;;;;;;;5.60;2.17;;;10.30;99.90;;;;;;5050092;28;20056;-67
2023/12/21 10:08:15;;;;;;;7.72;2.20;;;10.20;99.90;;;;;;5071817;28;20410;-69
2023/12/21 10:10:41;;;;;;;8.98;2.53;;;10.30;99.90;;;;;;5073025;28;20040;-67
2023/12/21 10:13:06;;;;;;;7.95;2.45;;;10.30;99.90;;;;;;5071330;28;20040;-66
2023/12/21 10:15:35;;;;;;;11.88;2.50;;;10.30;99.90;;;;;;5064573;28;20058;-66
2023/12/21 10:18:03;;;;;;;14.43;3.20;;;10.30;99.90;;;;;;5059317;28;20036;-67
2023/12/21 10:20:29;;;;;;;10.68;2.72;;;10.40;99.90;;;;;;5072712;28;20051;-67
2023/12/21 10:22:56;;;;;;;17.70;3.05;;;10.50;99.90;;;;;;5071394;28;20029;-66
2023/12/21 10:25:22;;;;;;;10.38;2.63;;;10.50;99.90;;;;;;5071497;28;20036;-67
2023/12/21 10:27:55;;;;;;;14.52;3.40;;;10.50;99.90;;;;;;5072744;28;20072;-66
2023/12/21 10:30:24;;;;;;;9.57;2.65;;;10.50;99.90;;;;;;5064287;28;20044;-67
2023/12/21 10:32:55;;;;;;;7.95;2.22;;;10.50;99.90;;;;;;5071396;28;20249;-68
2023/12/21 10:35:21;;;;;;;12.38;2.80;;;10.60;99.90;;;;;;5054705;28;20040;-70
2023/12/21 10:37:48;;;;;;;10.57;3.20;;;10.60;99.90;;;;;;5063544;28;20087;-70
2023/12/21 10:40:14;;;;;;;12.82;2.20;;;10.60;99.90;;;;;;5066150;28;20044;-71
2023/12/21 10:42:51;;;;;;;10.10;2.33;;;10.70;99.90;;;;;;5054039;28;20036;-72
2023/12/21 10:45:19;;;;;;;10.05;2.40;;;10.70;99.90;;;;;;5068460;28;20098;-70
2023/12/21 10:47:55;;;;;;;11.82;2.60;;;10.70;99.90;;;;;;5068368;28;20133;-67
2023/12/21 10:50:21;;;;;;;8.30;2.13;;;10.60;99.90;;;;;;5069784;28;20368;-69
2023/12/21 10:52:47;;;;;;;9.35;2.70;;;10.70;99.90;;;;;;5053597;28;20399;-67
2023/12/21 10:55:17;;;;;;;11.98;2.50;;;10.70;99.90;;;;;;5062179;28;20037;-69
2023/12/21 10:57:44;;;;;;;12.30;2.75;;;10.80;99.90;;;;;;5065788;28;20102;-69
2023/12/21 11:00:12;;;;;;;9.27;2.58;;;10.70;99.90;;;;;;5052612;28;20143;-68
2023/12/21 11:02:48;;;;;;;13.07;2.47;;;10.70;99.90;;;;;;5047662;28;20032;-69
2023/12/21 11:05:20;;;;;;;6.70;1.88;;;10.70;99.90;;;;;;5065976;28;20036;-68
2023/12/21 11:07:50;;;;;;;8.82;2.65;;;10.70;99.90;;;;;;5051777;28;20037;-69
2023/12/21 11:10:17;;;;;;;13.50;2.58;;;10.80;99.90;;;;;;5050125;28;20068;-68
2023/12/21 11:12:43;;;;;;;13.35;2.63;;;10.70;99.90;;;;;;5046389;28;20045;-69
2023/12/21 11:15:11;;;;;;;8.98;2.03;;;10.80;99.90;;;;;;5066662;28;20040;-69
2023/12/21 11:17:39;;;;;;;10.15;2.08;;;10.80;99.90;;;;;;5050737;28;20111;-69
2023/12/21 11:20:06;;;;;;;5.28;1.83;;;10.70;99.90;;;;;;5065962;28;20044;-67
2023/12/21 11:22:38;;;;;;;8.63;1.60;;;10.70;99.90;;;;;;5071014;28;20066;-67
2023/12/21 11:25:04;;;;;;;3.15;1.40;;;10.70;99.90;;;;;;5053451;28;20047;-68
2023/12/21 11:27:35;;;;;;;10.50;1.90;;;10.60;99.90;;;;;;5056861;28;20425;-68
2023/12/21 11:30:11;;;;;;;;;;;10.60;99.90;;;;;;5063674;28;20058;-68
2023/12/21 11:32:38;;;;;;;9.52;2.17;;;10.60;99.90;;;;;;5053131;28;19917;-68
2023/12/21 11:35:22;;;;;;;9.57;1.88;;;10.60;99.90;;;;;;5053428;28;20086;-66
2023/12/21 11:37:54;;;;;;;10.63;2.13;;;10.70;99.90;;;;;;5066969;28;20083;-66
2023/12/21 11:40:24;;;;;;;9.27;2.60;;;10.60;99.90;;;;;;5070581;28;20041;-67
2023/12/21 11:42:56;;;;;;;13.20;2.88;;;10.60;99.90;;;;;;5070545;28;20413;-66
2023/12/21 11:45:29;;;;;;;10.23;2.92;;;10.60;99.90;;;;;;5067288;28;20036;-66
2023/12/21 11:47:56;;;;;;;13.30;2.40;;;10.60;99.90;;;;;;5070064;28;20119;-67
2023/12/21 11:50:26;;;;;;;15.02;2.83;;;10.60;99.90;;;;;;5069272;28;20044;-66
2023/12/21 11:53:06;;;;;;;14.40;3.20;;;10.50;99.90;;;;;;5057723;28;20037;-66
2023/12/21 11:55:40;;;;;;;14.38;3.40;;;10.60;99.90;;;;;;5060235;28;20051;-66
2023/12/21 11:58:18;;;;;;;14.18;3.00;;;10.50;99.90;;;;;;5070773;28;20040;-68
2023/12/21 12:00:58;;;;;;;12.18;2.97;;;10.50;99.90;;;;;;5064381;28;20492;-68
2023/12/21 12:03:27;;;;;;;13.82;2.42;;;10.60;99.90;;;;;;5069508;28;20044;-66
2023/12/21 12:06:00;;;;;;;14.35;3.53;;;10.60;99.90;;;;;;5057946;28;20032;-66
2023/12/21 12:08:25;;;;;;;16.23;2.85;;;10.60;99.90;;;;;;5069184;28;20049;-68
2023/12/21 12:10:52;;;;;;;13.88;3.35;;;10.60;99.90;;;;;;5070719;28;20040;-68
2023/12/21 12:13:19;;;;;;;15.35;3.38;;;10.50;99.90;;;;;;5066714;28;20096;-66
2023/12/21 12:15:47;;;;;;;11.07;2.90;;;10.50;99.90;;;;;;5064257;28;20115;-69
2023/12/21 12:18:13;;;;;;;14.68;2.72;;;10.50;99.90;;;;;;5061105;28;20048;-69
2023/12/21 12:20:49;;;;;;;13.80;3.00;;;10.60;99.90;;;;;;5070509;28;20131;-69
2023/12/21 12:23:15;;;;;;;13.52;2.75;;;10.60;99.90;;;;;;5051900;28;20506;-69
2023/12/21 12:25:45;;;;;;;10.18;2.40;;;10.60;99.90;;;;;;5070562;28;20402;-69
2023/12/21 12:28:11;;;;;;;10.57;2.63;;;10.60;99.90;;;;;;5058083;28;20123;-68
2023/12/21 12:30:37;;;;;;;12.15;2.35;;;10.60;99.90;;;;;;5058929;28;20170;-67
2023/12/21 12:33:05;;;;;;;12.18;2.85;;;10.60;99.90;;;;;;5052297;28;20123;-69
2023/12/21 12:35:36;;;;;;;16.98;2.58;;;10.50;99.90;;;;;;5057522;28;20051;-69
2023/12/21 12:38:08;;;;;;;12.38;2.75;;;10.60;99.90;;;;;;5047645;28;20407;-69
2023/12/21 12:40:35;;;;;;;12.27;2.63;;;10.60;99.90;;;;;;5070001;28;20127;-67
2023/12/21 12:43:01;;;;;;;21.33;3.70;;;10.60;99.90;;;;;;5064068;28;20040;-68